HP: University of Magic Arts

Объявление

Добро пожаловать в магический Лондон!
В игре: 2025 год, сентябрь. В УМИ начинается юбилейный учебный год.

Рейтинг Ролевых Ресурсов - RPG TOP Рейтинг форумов Forum-top.ru Palantir

Информация о пользователе

Привет, Гость! Войдите или зарегистрируйтесь.


Вы здесь » HP: University of Magic Arts » Настоящее


Настоящее

Тем 1 страница 26 из 26

Тема Ответов Просмотров Последнее сообщение
1 Важно: Закрыта Шаблон эпизода  Magic
0 70 2017-12-05 13:15:05  Magic
1 42 2018-08-15 23:59:48  Blaise Zabini
3 80 2018-08-15 21:30:00  Ruby Morrison
6 78 2018-08-15 18:57:21  Scorpius Malfoy
5 Tempest in a teapot  Julian Ford
8 128 2018-08-14 10:48:49  Julian Ford
0 9 2018-08-14 08:59:10  Theobald Travers
6 179 2018-08-13 22:58:12  Ruby Morrison
14 249 2018-08-11 23:31:44  Blaise Zabini
5 68 2018-08-11 22:22:53  Roxanne Weasley
7 86 2018-08-09 20:49:04  Roxanne Weasley
15 297 2018-08-07 14:29:21  Farran Moran
2 104 2018-08-07 14:03:25  Teddy Lupin
1 27 2018-08-06 20:41:26  Roxanne Weasley
14 don't rain on my parade  Alice Longbottom
4 78 2018-07-21 21:28:20  Alice Longbottom
15 Bravo, Bravo, Bravo  Blaise Zabini
1 57 2018-07-21 16:50:48  Blaise Zabini
16 The deal and the benefits  Ginette Clarke
4 101 2018-07-13 16:10:10  Scorpius Malfoy
17 hello, stranger  Alice Longbottom
3 98 2018-07-06 22:15:23  Daniel Livingstone
18 Первый тост за дам!  Daniel Livingstone
4 128 2018-07-06 21:38:21  Daniel Livingstone
19 Кто, если не я?  Daniel Livingstone
6 215 2018-07-05 23:02:36  Daniel Livingstone
20 Honour and profit  Farran Moran
8 168 2018-07-04 18:33:12  Farran Moran
4 83 2018-07-04 08:36:41  Christian Burke
3 35 2018-07-03 20:42:11  Scorpius Malfoy
23 Secret protection  Rosaline Hogarth
4 129 2018-06-03 13:25:53  Rosaline Hogarth
3 105 2018-05-07 13:34:07  Teddy Lupin
25 Откуда не ждёшь  Rosaline Hogarth
2 192 2018-04-21 22:32:44  Rosaline Hogarth
6 323 2018-03-24 02:55:11  Ginny Potter

Вы здесь » HP: University of Magic Arts » Настоящее